createdAt,value
2022-08-08T00:02:03.843Z,70.43
2022-08-08T00:04:49.141Z,71.20
2022-08-08T00:07:48.171Z,71.10
2022-08-08T00:10:29.882Z,69.50
2022-08-08T00:13:20.998Z,74.03
2022-08-08T00:16:16.534Z,71.47
2022-08-08T00:18:48.233Z,73.17
2022-08-08T00:21:26.720Z,73.80
2022-08-08T00:24:11.772Z,69.97
2022-08-08T00:26:50.383Z,67.33
2022-08-08T00:29:44.139Z,68.73
2022-08-08T00:33:02.049Z,72.97
2022-08-08T00:38:31.303Z,73.07
2022-08-08T00:41:55.565Z,72.07
2022-08-08T00:44:52.857Z,69.57
2022-08-08T00:48:04.944Z,68.57
2022-08-08T00:51:02.305Z,71.27
2022-08-08T00:57:04.213Z,69.93
2022-08-08T00:59:59.427Z,69.07
2022-08-08T01:03:57.632Z,69.20
2022-08-08T01:06:27.001Z,71.73
2022-08-08T01:09:36.117Z,70.40
2022-08-08T01:12:47.302Z,71.67
2022-08-08T01:15:44.292Z,68.57
2022-08-08T01:18:53.523Z,72.90
2022-08-08T01:22:07.523Z,69.97
2022-08-08T01:24:54.172Z,68.37
2022-08-08T01:27:46.109Z,70.80
2022-08-08T01:31:00.534Z,72.23
2022-08-08T01:34:00.889Z,68.40
2022-08-08T01:37:01.862Z,72.23
2022-08-08T01:39:53.581Z,71.93
2022-08-08T01:42:36.231Z,70.00
2022-08-08T01:45:41.298Z,72.63
2022-08-08T01:48:34.124Z,70.87
2022-08-08T01:51:48.645Z,70.13
2022-08-08T01:55:25.863Z,70.50
2022-08-08T01:58:11.756Z,70.57
2022-08-08T02:01:15.772Z,71.70
2022-08-08T02:04:00.510Z,69.33
2022-08-08T02:06:57.190Z,70.53
2022-08-08T02:10:01.592Z,70.77
2022-08-08T02:12:50.555Z,68.57
2022-08-08T02:15:38.853Z,71.80
2022-08-08T02:18:27.212Z,70.13
2022-08-08T02:21:36.394Z,69.83
2022-08-08T02:24:19.864Z,69.87
2022-08-08T02:27:12.913Z,67.07
2022-08-08T02:30:05.943Z,69.37
2022-08-08T02:33:21.409Z,70.27
2022-08-08T02:36:16.308Z,69.03
2022-08-08T02:39:01.050Z,71.67
2022-08-08T02:41:59.048Z,68.90
2022-08-08T02:45:18.474Z,71.17
2022-08-08T02:48:14.744Z,71.07
2022-08-08T02:51:05.357Z,69.78
2022-08-08T02:56:52.420Z,73.97
2022-08-08T03:00:01.645Z,73.20
2022-08-08T03:05:00.697Z,68.30
2022-08-08T03:06:46.146Z,72.67
2022-08-08T03:09:41.487Z,73.80
2022-08-08T03:12:36.702Z,74.83
2022-08-08T03:15:56.483Z,70.77
2022-08-08T03:18:46.544Z,72.43
2022-08-08T03:21:26.968Z,72.50
2022-08-08T03:24:11.775Z,75.73
2022-08-08T03:27:05.297Z,74.80
2022-08-08T03:29:54.809Z,70.50
2022-08-08T03:32:56.918Z,68.77
2022-08-08T03:35:38.698Z,70.87
2022-08-08T03:38:57.989Z,71.93
2022-08-08T03:41:08.873Z,73.40
2022-08-08T03:43:59.582Z,70.67
2022-08-08T03:46:50.403Z,67.40
2022-08-08T03:50:01.196Z,69.70
2022-08-08T03:52:19.395Z,68.37
2022-08-08T03:55:09.793Z,71.23
2022-08-08T03:58:29.911Z,68.33
2022-08-08T04:01:02.275Z,74.30
2022-08-08T04:03:57.899Z,72.22
2022-08-08T04:06:39.499Z,72.07
2022-08-08T04:09:16.779Z,67.30
2022-08-08T04:12:00.433Z,70.03
2022-08-08T04:14:47.297Z,68.17
2022-08-08T04:17:58.336Z,71.47
2022-08-08T04:20:14.989Z,73.03
2022-08-08T04:22:51.588Z,71.40
2022-08-08T04:25:27.978Z,69.93
2022-08-08T04:28:35.037Z,68.27
2022-08-08T04:30:58.978Z,71.30
2022-08-08T04:33:38.646Z,69.87
2022-08-08T04:36:14.150Z,69.37
2022-08-08T04:38:46.011Z,70.30
2022-08-08T04:41:21.294Z,70.63
2022-08-08T04:43:57.202Z,72.97
2022-08-08T04:46:31.125Z,72.43
2022-08-08T04:49:03.727Z,70.85
2022-08-08T04:51:54.806Z,71.43
2022-08-08T04:54:40.178Z,73.67
2022-08-08T04:57:15.114Z,70.20
2022-08-08T04:59:47.608Z,76.63
2022-08-08T05:02:20.088Z,75.03
2022-08-08T05:04:55.545Z,75.53
2022-08-08T05:07:38.005Z,74.37
2022-08-08T05:10:16.347Z,73.77
2022-08-08T05:13:01.589Z,73.87
2022-08-08T05:16:51.150Z,77.80
2022-08-08T05:18:27.966Z,75.50
2022-08-08T05:21:00.602Z,73.47
2022-08-08T05:23:41.186Z,74.00
2022-08-08T05:26:19.745Z,72.10
2022-08-08T05:28:57.211Z,75.60
2022-08-08T05:32:03.444Z,78.20
2022-08-08T05:34:47.659Z,74.53
2022-08-08T05:37:39.017Z,77.57
2022-08-08T05:40:21.611Z,77.60
2022-08-08T05:43:38.629Z,79.47
2022-08-08T05:46:07.716Z,78.50
2022-08-08T05:48:43.733Z,83.73
2022-08-08T05:51:25.943Z,84.97
2022-08-08T05:54:28.036Z,82.43
2022-08-08T05:56:53.259Z,84.20
2022-08-08T05:59:59.390Z,84.10
2022-08-08T06:02:52.985Z,83.30
2022-08-08T06:05:35.460Z,89.53
2022-08-08T06:08:33.564Z,83.83
2022-08-08T06:11:10.993Z,89.77
2022-08-08T06:13:50.941Z,92.90
2022-08-08T06:16:30.377Z,90.93
2022-08-08T06:19:25.573Z,89.17
2022-08-08T06:21:59.463Z,89.80
2022-08-08T06:24:40.219Z,92.30
2022-08-08T06:27:35.961Z,91.60
2022-08-08T06:30:26.049Z,94.70
2022-08-08T06:33:01.035Z,98.60
2022-08-08T06:36:07.567Z,103.00
2022-08-08T06:38:31.904Z,98.00
2022-08-08T06:41:08.378Z,100.60
2022-08-08T06:43:57.129Z,99.93
2022-08-08T06:46:33.464Z,99.63
2022-08-08T06:49:06.405Z,96.70
2022-08-08T06:51:52.453Z,100.13
2022-08-08T06:54:32.559Z,100.77
2022-08-08T06:57:05.386Z,99.85
2022-08-08T07:00:02.605Z,104.03
2022-08-08T07:02:36.324Z,106.40
2022-08-08T07:05:20.648Z,106.87
2022-08-08T07:08:09.231Z,101.97
2022-08-08T07:10:52.021Z,108.90
2022-08-08T07:13:28.982Z,107.60
2022-08-08T07:16:11.743Z,107.73
2022-08-08T07:19:07.961Z,106.10
2022-08-08T07:21:59.156Z,107.37
2022-08-08T07:24:44.819Z,107.33
2022-08-08T07:27:35.481Z,109.20
2022-08-08T07:30:21.335Z,107.10
2022-08-08T07:33:01.343Z,111.00
2022-08-08T07:35:37.079Z,111.07
2022-08-08T07:38:20.321Z,113.13
2022-08-08T07:41:06.707Z,118.40
2022-08-08T07:43:43.033Z,114.67
2022-08-08T07:46:30.486Z,117.53
2022-08-08T07:49:09.848Z,116.65
2022-08-08T07:51:44.661Z,114.27
2022-08-08T07:54:33.291Z,117.45
2022-08-08T07:57:36.083Z,113.80
2022-08-08T08:00:16.790Z,117.47
2022-08-08T08:03:20.879Z,113.70
2022-08-08T08:05:58.748Z,112.73
2022-08-08T08:08:50.215Z,113.23
2022-08-08T08:11:38.101Z,109.23
2022-08-08T08:14:35.136Z,112.53
2022-08-08T08:17:09.768Z,114.00
2022-08-08T08:19:46.208Z,108.13
2022-08-08T08:22:31.467Z,112.30
2022-08-08T08:25:07.748Z,113.40
2022-08-08T08:27:47.017Z,113.10
2022-08-08T08:30:19.739Z,110.93
2022-08-08T08:32:52.253Z,111.27
2022-08-08T08:35:29.925Z,110.37
2022-08-08T08:38:20.878Z,114.57
2022-08-08T08:41:06.149Z,116.80
2022-08-08T08:43:52.133Z,118.33
2022-08-08T08:46:26.114Z,118.32
2022-08-08T08:48:59.284Z,117.03
2022-08-08T08:51:31.956Z,116.73
2022-08-08T08:54:08.056Z,119.50
2022-08-08T08:56:42.379Z,113.23
2022-08-08T08:59:58.695Z,109.50
2022-08-08T09:02:21.798Z,110.63
2022-08-08T09:04:59.382Z,111.57
2022-08-08T09:07:39.356Z,112.30
2022-08-08T09:10:28.999Z,117.83
2022-08-08T09:13:02.662Z,115.23
2022-08-08T09:15:41.024Z,108.55
2022-08-08T09:18:18.751Z,114.20
2022-08-08T09:21:57.303Z,110.50
2022-08-08T09:23:46.533Z,112.57
2022-08-08T09:26:32.518Z,111.17
2022-08-08T09:29:37.035Z,107.07
2022-08-08T09:32:38.403Z,108.27
2022-08-08T09:35:20.703Z,109.07
2022-08-08T09:38:05.664Z,104.60
2022-08-08T09:40:51.311Z,104.40
2022-08-08T09:44:05.155Z,103.33
2022-08-08T09:46:25.805Z,103.65
2022-08-08T09:49:18.544Z,104.07
2022-08-08T09:52:01.814Z,104.07
2022-08-08T09:54:44.700Z,108.40
2022-08-08T09:57:45.668Z,107.87
2022-08-08T10:00:49.768Z,111.50
2022-08-08T10:03:19.818Z,106.57
2022-08-08T10:05:52.131Z,108.43
2022-08-08T10:08:23.825Z,111.23
2022-08-08T10:10:58.721Z,109.35
2022-08-08T10:13:36.123Z,108.53
2022-08-08T10:16:13.702Z,102.70
2022-08-08T10:18:46.373Z,107.63
2022-08-08T10:21:26.237Z,110.70
2022-08-08T10:24:11.992Z,108.67
2022-08-08T10:27:05.582Z,103.77
2022-08-08T10:30:00.074Z,106.67
2022-08-08T10:32:34.410Z,100.53
2022-08-08T10:36:06.622Z,106.80
2022-08-08T10:38:15.151Z,104.97
2022-08-08T10:40:53.298Z,106.23
2022-08-08T10:43:36.529Z,102.97
2022-08-08T10:46:29.576Z,107.27
2022-08-08T10:49:01.854Z,106.17
2022-08-08T10:51:47.259Z,107.23
2022-08-08T10:54:25.090Z,104.47
2022-08-08T10:57:00.286Z,106.87
2022-08-08T10:59:39.730Z,104.95
2022-08-08T11:02:12.684Z,104.67
2022-08-08T11:04:53.672Z,99.80
2022-08-08T11:08:30.044Z,105.43
2022-08-08T11:10:28.819Z,104.67
2022-08-08T11:13:28.814Z,106.53
2022-08-08T11:16:00.820Z,98.50
2022-08-08T11:18:39.968Z,99.30
2022-08-08T11:21:19.550Z,97.10
2022-08-08T11:24:01.638Z,102.07
2022-08-08T11:26:56.311Z,101.00
2022-08-08T11:32:29.462Z,102.47
2022-08-08T11:35:25.975Z,102.53
2022-08-08T11:38:38.692Z,100.07
2022-08-08T11:40:55.880Z,101.97
2022-08-08T11:43:38.596Z,97.90
2022-08-08T11:46:17.873Z,99.17
2022-08-08T11:48:50.839Z,102.47
2022-08-08T11:51:38.438Z,101.20
2022-08-08T11:54:31.529Z,104.83
2022-08-08T11:57:27.362Z,98.23
2022-08-08T12:00:05.325Z,101.17
2022-08-08T12:02:57.586Z,99.88
2022-08-08T12:05:34.546Z,98.80
2022-08-08T12:08:07.723Z,99.73
2022-08-08T12:10:48.938Z,100.30
2022-08-08T12:13:37.603Z,100.40
2022-08-08T12:16:19.862Z,101.97
2022-08-08T12:18:53.817Z,100.50
2022-08-08T12:21:59.197Z,96.72
2022-08-08T12:24:27.700Z,100.37
2022-08-08T12:27:00.279Z,97.40
2022-08-08T12:29:41.856Z,98.83
2022-08-08T12:32:19.821Z,101.53
2022-08-08T12:35:04.419Z,97.10
2022-08-08T12:37:48.167Z,94.67
2022-08-08T12:40:56.891Z,101.77
2022-08-08T12:43:49.715Z,101.70
2022-08-08T12:46:28.959Z,97.20
2022-08-08T12:54:36.679Z,100.27
2022-08-08T12:57:24.190Z,95.60
2022-08-08T13:00:05.053Z,99.33
2022-08-08T13:02:51.504Z,101.13
2022-08-08T13:05:27.117Z,99.40
2022-08-08T13:08:19.779Z,99.53
2022-08-08T13:10:56.751Z,100.23
2022-08-08T13:13:37.061Z,98.07
2022-08-08T13:16:25.534Z,100.27
2022-08-08T13:19:09.203Z,99.43
2022-08-08T13:21:53.251Z,93.90
2022-08-08T13:24:48.550Z,92.40
2022-08-08T13:27:29.968Z,94.17
2022-08-08T13:30:08.740Z,97.17
2022-08-08T13:32:42.197Z,95.77
2022-08-08T13:35:25.018Z,93.93
2022-08-08T13:38:08.508Z,96.33
2022-08-08T13:40:45.860Z,95.00
2022-08-08T13:43:18.667Z,96.88
2022-08-08T13:45:52.695Z,96.43
2022-08-08T13:48:26.189Z,97.57
2022-08-08T13:51:33.518Z,97.07
2022-08-08T13:54:00.013Z,94.93
2022-08-08T13:56:53.597Z,94.97
2022-08-08T13:59:39.230Z,97.93
2022-08-08T14:02:14.653Z,96.53
2022-08-08T14:05:21.755Z,99.27
2022-08-08T14:07:59.407Z,99.20
2022-08-08T14:10:37.495Z,97.03
2022-08-08T14:13:30.404Z,96.83
2022-08-08T14:16:15.860Z,95.90
2022-08-08T14:19:00.582Z,99.00
2022-08-08T14:21:52.266Z,97.83
2022-08-08T14:24:33.346Z,97.40
2022-08-08T14:27:18.817Z,96.20
2022-08-08T14:30:17.114Z,97.13
2022-08-08T14:32:53.255Z,98.73
2022-08-08T14:35:35.123Z,97.43
2022-08-08T14:38:33.919Z,95.47
2022-08-08T14:41:45.276Z,95.45
2022-08-08T14:44:19.582Z,96.33
2022-08-08T14:47:01.428Z,94.00
2022-08-08T14:49:51.518Z,96.33
2022-08-08T14:52:26.429Z,98.73
2022-08-08T14:54:59.082Z,99.23
2022-08-08T14:58:06.495Z,97.70
2022-08-08T15:00:23.798Z,93.53
2022-08-08T15:05:54.712Z,95.03
2022-08-08T15:08:33.525Z,93.07
2022-08-08T15:11:11.686Z,91.73
2022-08-08T15:14:01.657Z,97.23
2022-08-08T15:16:35.110Z,100.32
2022-08-08T15:19:07.131Z,99.97
2022-08-08T15:21:42.838Z,101.10
2022-08-08T15:24:15.892Z,95.57
2022-08-08T15:26:53.125Z,98.77
2022-08-08T15:29:25.601Z,96.07
2022-08-08T15:32:18.985Z,94.60
2022-08-08T15:34:49.626Z,93.63
2022-08-08T15:37:21.721Z,99.67
2022-08-08T15:39:54.009Z,94.57
2022-08-08T15:42:41.517Z,91.57
2022-08-08T15:45:13.233Z,92.27
2022-08-08T15:48:05.270Z,93.90
2022-08-08T15:50:56.549Z,90.97
2022-08-08T15:53:33.174Z,93.40
2022-08-08T15:56:13.150Z,94.90
2022-08-08T15:58:48.237Z,97.53
2022-08-08T16:01:21.008Z,94.67
2022-08-08T16:03:54.212Z,93.90
2022-08-08T16:06:28.368Z,95.33
2022-08-08T16:13:02.147Z,93.03
2022-08-08T16:13:03.182Z,97.03
2022-08-08T16:14:52.663Z,90.80
2022-08-08T16:17:38.739Z,96.90
2022-08-08T16:20:17.521Z,92.87
2022-08-08T16:22:52.176Z,93.73
2022-08-08T16:25:45.689Z,98.45
2022-08-08T16:28:22.704Z,94.07
2022-08-08T16:31:07.978Z,94.33
2022-08-08T16:33:41.205Z,90.53
2022-08-08T16:36:27.978Z,94.83
2022-08-08T16:39:17.062Z,94.45
2022-08-08T16:42:01.000Z,91.20
2022-08-08T16:44:34.479Z,91.13
2022-08-08T16:47:40.382Z,91.90
2022-08-08T16:50:16.664Z,91.80
2022-08-08T16:55:03.233Z,91.20
2022-08-08T16:55:55.736Z,91.57
2022-08-08T16:58:32.586Z,94.57
2022-08-08T17:01:10.936Z,93.93
2022-08-08T17:03:58.711Z,96.90
2022-08-08T17:06:36.797Z,93.47
2022-08-08T17:09:15.095Z,95.30
2022-08-08T17:11:49.218Z,95.67
2022-08-08T17:14:27.623Z,94.73
2022-08-08T17:17:23.051Z,94.10
2022-08-08T17:19:59.676Z,91.07
2022-08-08T17:22:39.393Z,95.40
2022-08-08T17:25:14.229Z,92.20
2022-08-08T17:27:49.779Z,91.90
2022-08-08T17:30:29.104Z,94.23
2022-08-08T17:34:36.683Z,92.53
2022-08-08T17:36:10.017Z,87.33
2022-08-08T17:38:43.072Z,90.10
2022-08-08T17:41:15.597Z,91.50
2022-08-08T17:44:00.921Z,89.70
2022-08-08T17:46:42.742Z,85.87
2022-08-08T17:49:23.985Z,91.43
2022-08-08T17:51:56.603Z,91.47
2022-08-08T17:54:29.051Z,89.43
2022-08-08T17:57:03.510Z,90.57
2022-08-08T17:59:45.612Z,86.53
2022-08-08T18:02:21.305Z,89.70
2022-08-08T18:04:55.218Z,88.93
2022-08-08T18:08:03.375Z,90.03
2022-08-08T18:10:31.767Z,89.85
2022-08-08T18:13:07.476Z,86.57
2022-08-08T18:15:40.713Z,91.13
2022-08-08T18:18:28.616Z,89.60
2022-08-08T18:21:10.446Z,87.17
2022-08-08T18:23:55.848Z,88.35
2022-08-08T18:26:28.937Z,92.93
2022-08-08T18:29:01.607Z,89.03
2022-08-08T18:31:33.374Z,87.50
2022-08-08T18:34:25.674Z,88.37
2022-08-08T18:36:57.512Z,91.20
2022-08-08T18:39:29.420Z,89.70
2022-08-08T18:42:03.663Z,90.20
2022-08-08T18:44:36.206Z,88.50
2022-08-08T18:47:07.948Z,95.77
2022-08-08T18:49:41.162Z,94.27
2022-08-08T18:52:33.925Z,93.33
2022-08-08T18:55:10.292Z,90.53
2022-08-08T18:57:44.893Z,82.70
2022-08-08T19:00:20.221Z,90.10
2022-08-08T19:03:04.226Z,86.80
2022-08-08T19:05:45.105Z,84.23
2022-08-08T19:08:25.644Z,87.80
2022-08-08T19:11:02.164Z,83.70
2022-08-08T19:13:47.284Z,90.00
2022-08-08T19:16:28.473Z,87.63
2022-08-08T19:19:12.352Z,82.93
2022-08-08T19:21:49.490Z,85.30
2022-08-08T19:24:42.776Z,84.90
2022-08-08T19:27:14.914Z,83.27
2022-08-08T19:29:46.707Z,80.63
2022-08-08T19:32:25.457Z,81.73
2022-08-08T19:34:57.157Z,79.43
2022-08-08T19:37:43.543Z,77.67
2022-08-08T19:40:21.967Z,79.00
2022-08-08T19:43:02.870Z,79.90
2022-08-08T19:45:59.397Z,79.00
2022-08-08T19:48:33.504Z,82.30
2022-08-08T19:51:05.230Z,83.80
2022-08-08T19:53:53.501Z,77.83
2022-08-08T19:56:40.247Z,77.87
2022-08-08T19:59:13.111Z,79.43
2022-08-08T20:02:01.006Z,83.03
2022-08-08T20:04:34.071Z,77.60
2022-08-08T20:08:27.917Z,78.23
2022-08-08T20:10:00.702Z,78.18
2022-08-08T20:12:35.397Z,78.40
2022-08-08T20:15:16.780Z,78.40
2022-08-08T20:17:48.914Z,82.80
2022-08-08T20:20:22.195Z,77.80
2022-08-08T20:22:56.968Z,77.97
2022-08-08T20:25:30.067Z,74.90
2022-08-08T20:28:07.882Z,78.17
2022-08-08T20:30:55.938Z,81.13
2022-08-08T20:34:27.719Z,77.77
2022-08-08T20:36:23.077Z,76.10
2022-08-08T20:38:59.439Z,75.30
2022-08-08T20:41:35.303Z,78.40
2022-08-08T20:44:07.306Z,78.53
2022-08-08T20:46:40.700Z,77.25
2022-08-08T20:49:21.868Z,77.63
2022-08-08T20:51:53.602Z,77.43
2022-08-08T20:54:28.251Z,77.80
2022-08-08T20:57:04.045Z,73.20
2022-08-08T20:59:48.738Z,74.47
2022-08-08T21:02:25.747Z,78.33
2022-08-08T21:05:01.178Z,79.23
2022-08-08T21:08:33.635Z,77.40
2022-08-08T21:10:28.449Z,80.03
2022-08-08T21:13:01.568Z,78.00
2022-08-08T21:16:05.650Z,73.23
2022-08-08T21:18:28.184Z,75.83
2022-08-08T21:21:00.203Z,74.30
2022-08-08T21:26:27.299Z,74.23
2022-08-08T21:29:00.557Z,76.93
2022-08-08T21:31:58.700Z,74.07
2022-08-08T21:34:24.040Z,75.00
2022-08-08T21:37:11.472Z,75.73
2022-08-08T21:39:56.651Z,76.50
2022-08-08T21:42:28.812Z,73.23
2022-08-08T21:45:20.814Z,75.87
2022-08-08T21:48:06.451Z,72.27
2022-08-08T21:50:43.596Z,72.67
2022-08-08T21:54:22.798Z,74.23
2022-08-08T21:56:20.043Z,73.17
2022-08-08T21:59:01.630Z,75.63
2022-08-08T22:01:40.616Z,69.80
2022-08-08T22:04:13.173Z,73.90
2022-08-08T22:06:47.074Z,74.68
2022-08-08T22:09:18.937Z,73.40
2022-08-08T22:12:04.516Z,78.80
2022-08-08T22:14:42.759Z,74.30
2022-08-08T22:17:17.104Z,72.00
2022-08-08T22:20:12.399Z,75.32
2022-08-08T22:22:40.770Z,75.43
2022-08-08T22:25:24.802Z,80.13
2022-08-08T22:30:36.477Z,75.73
2022-08-08T22:34:10.895Z,76.03
2022-08-08T22:36:12.479Z,73.68
2022-08-08T22:38:48.250Z,72.93
2022-08-08T22:41:23.331Z,74.37
2022-08-08T22:44:02.731Z,72.32
2022-08-08T22:46:39.013Z,74.67
2022-08-08T22:49:11.591Z,75.38
2022-08-08T22:51:49.582Z,71.93
2022-08-08T22:54:30.101Z,73.47
2022-08-08T22:57:17.958Z,75.23
2022-08-08T22:59:59.281Z,75.00
2022-08-08T23:02:32.005Z,76.27
2022-08-08T23:05:07.600Z,74.70
2022-08-08T23:07:51.644Z,75.87
2022-08-08T23:10:29.580Z,76.00
2022-08-08T23:13:01.221Z,74.77
2022-08-08T23:16:41.522Z,72.77
2022-08-08T23:18:28.465Z,73.37
2022-08-08T23:21:04.517Z,70.80
2022-08-08T23:23:48.396Z,71.67
2022-08-08T23:26:20.529Z,70.80
2022-08-08T23:28:54.834Z,75.47
2022-08-08T23:31:26.439Z,71.13
2022-08-08T23:34:16.474Z,72.40
2022-08-08T23:36:57.927Z,69.03
2022-08-08T23:39:41.490Z,73.70
2022-08-08T23:42:13.928Z,71.35
2022-08-08T23:44:47.992Z,75.75
2022-08-08T23:48:59.645Z,72.47
2022-08-08T23:50:29.835Z,71.90
2022-08-08T23:53:03.689Z,69.77
2022-08-08T23:55:42.089Z,68.43
2022-08-08T23:58:31.880Z,74.67
